createdAt,value
2023-03-17T00:01:54.687Z,6.57
2023-03-17T00:04:24.501Z,6.97
2023-03-17T00:06:52.914Z,7.03
2023-03-17T00:09:22.442Z,6.07
2023-03-17T00:11:50.189Z,6.45
2023-03-17T00:14:19.950Z,7.00
2023-03-17T00:16:52.825Z,7.13
2023-03-17T00:19:33.288Z,6.90
2023-03-17T00:22:01.680Z,6.03
2023-03-17T00:24:30.046Z,6.18
2023-03-17T00:26:57.486Z,5.93
2023-03-17T00:29:25.577Z,6.32
2023-03-17T00:31:53.660Z,6.25
2023-03-17T00:34:23.499Z,6.43
2023-03-17T00:36:52.397Z,7.07
2023-03-17T00:39:19.983Z,6.20
2023-03-17T00:41:50.355Z,6.78
2023-03-17T00:44:18.670Z,5.97
2023-03-17T00:46:46.600Z,5.72
2023-03-17T00:49:21.378Z,5.40
2023-03-17T00:51:49.897Z,5.25
2023-03-17T00:54:19.566Z,5.15
2023-03-17T00:56:48.523Z,5.47
2023-03-17T00:59:26.168Z,5.68
2023-03-17T01:01:54.104Z,5.82
2023-03-17T01:04:21.834Z,5.93
2023-03-17T01:06:50.560Z,5.43
2023-03-17T01:09:20.911Z,5.30
2023-03-17T01:11:49.280Z,5.47
2023-03-17T01:14:17.054Z,5.45
2023-03-17T01:16:44.904Z,4.60
2023-03-17T01:19:13.813Z,4.82
2023-03-17T01:21:42.603Z,5.47
2023-03-17T01:24:10.828Z,5.38
2023-03-17T01:26:39.085Z,6.43
2023-03-17T01:29:08.023Z,5.43
2023-03-17T01:31:35.550Z,5.82
2023-03-17T01:34:04.430Z,5.75
2023-03-17T01:36:31.702Z,5.97
2023-03-17T01:38:59.599Z,5.55
2023-03-17T01:41:26.917Z,6.63
2023-03-17T01:43:54.456Z,7.65
2023-03-17T01:46:34.225Z,7.13
2023-03-17T01:49:17.492Z,6.95
2023-03-17T01:51:54.618Z,7.47
2023-03-17T01:54:43.369Z,5.97
2023-03-17T01:57:18.629Z,6.60
2023-03-17T01:59:55.529Z,6.90
2023-03-17T02:02:31.032Z,7.35
2023-03-17T02:04:59.289Z,7.45
2023-03-17T02:07:27.659Z,7.07
2023-03-17T02:09:57.369Z,7.10
2023-03-17T02:12:25.861Z,6.63
2023-03-17T02:14:53.532Z,7.57
2023-03-17T02:17:23.778Z,8.38
2023-03-17T02:19:51.937Z,7.85
2023-03-17T02:22:19.978Z,8.38
2023-03-17T02:24:58.578Z,8.05
2023-03-17T02:27:39.613Z,8.57
2023-03-17T02:30:10.992Z,9.13
2023-03-17T02:32:38.886Z,9.17
2023-03-17T02:35:08.898Z,8.52
2023-03-17T02:37:38.500Z,8.13
2023-03-17T02:40:07.795Z,8.45
2023-03-17T02:42:35.777Z,8.52
2023-03-17T02:45:03.493Z,9.80
2023-03-17T02:47:30.805Z,8.98
2023-03-17T02:49:58.925Z,9.35
2023-03-17T02:52:26.424Z,8.27
2023-03-17T02:54:53.893Z,10.05
2023-03-17T02:57:21.543Z,8.63
2023-03-17T02:59:49.201Z,10.02
2023-03-17T03:02:16.966Z,9.48
2023-03-17T03:04:44.557Z,9.65
2023-03-17T03:07:12.367Z,9.90
2023-03-17T03:09:40.078Z,9.55
2023-03-17T03:12:10.123Z,10.02
2023-03-17T03:14:37.797Z,8.82
2023-03-17T03:17:05.491Z,10.23
2023-03-17T03:19:33.063Z,10.00
2023-03-17T03:22:00.350Z,10.07
2023-03-17T03:24:28.048Z,9.50
2023-03-17T03:26:55.280Z,8.75
2023-03-17T03:29:23.078Z,8.57
2023-03-17T03:31:51.039Z,9.18
2023-03-17T03:34:18.831Z,8.60
2023-03-17T03:36:46.086Z,8.35
2023-03-17T03:39:14.547Z,7.80
2023-03-17T03:41:42.415Z,8.57
2023-03-17T03:44:10.091Z,8.02
2023-03-17T03:46:37.346Z,8.40
2023-03-17T03:49:05.145Z,8.15
2023-03-17T03:51:32.350Z,7.97
2023-03-17T03:54:01.330Z,8.85
2023-03-17T03:56:28.619Z,8.48
2023-03-17T03:58:57.223Z,8.85
2023-03-17T04:01:24.823Z,9.15
2023-03-17T04:03:52.288Z,9.60
2023-03-17T04:06:19.536Z,8.63
2023-03-17T04:08:47.132Z,9.45
2023-03-17T04:11:14.395Z,9.23
2023-03-17T04:13:42.045Z,8.25
2023-03-17T04:16:09.416Z,8.75
2023-03-17T04:18:37.090Z,11.07
2023-03-17T04:21:04.532Z,10.65
2023-03-17T04:23:32.144Z,11.02
2023-03-17T04:25:59.366Z,10.77
2023-03-17T04:28:26.972Z,10.60
2023-03-17T04:30:54.250Z,11.05
2023-03-17T04:33:21.946Z,10.38
2023-03-17T04:35:49.273Z,10.45
2023-03-17T04:38:16.947Z,9.70
2023-03-17T04:40:44.222Z,11.10
2023-03-17T04:43:11.769Z,10.35
2023-03-17T04:45:39.039Z,13.65
2023-03-17T04:48:06.617Z,10.93
2023-03-17T04:50:34.514Z,12.68
2023-03-17T04:53:02.178Z,12.27
2023-03-17T04:55:29.407Z,13.50
2023-03-17T04:57:56.925Z,14.10
2023-03-17T05:00:24.403Z,14.00
2023-03-17T05:02:51.973Z,12.73
2023-03-17T05:05:19.192Z,14.18
2023-03-17T05:07:46.800Z,13.77
2023-03-17T05:10:14.092Z,13.45
2023-03-17T05:12:41.711Z,15.82
2023-03-17T05:15:10.106Z,14.00
2023-03-17T05:17:37.684Z,14.07
2023-03-17T05:20:05.799Z,13.60
2023-03-17T05:22:33.307Z,15.25
2023-03-17T05:25:00.571Z,15.20
2023-03-17T05:27:28.317Z,16.83
2023-03-17T05:29:55.550Z,16.73
2023-03-17T05:32:24.040Z,14.23
2023-03-17T05:34:52.144Z,16.23
2023-03-17T05:37:19.649Z,17.65
2023-03-17T05:39:47.034Z,16.45
2023-03-17T05:42:14.524Z,17.15
2023-03-17T05:44:41.752Z,16.73
2023-03-17T05:47:09.494Z,16.80
2023-03-17T05:49:37.046Z,18.02
2023-03-17T05:52:04.634Z,17.83
2023-03-17T05:54:31.877Z,18.25
2023-03-17T05:56:59.471Z,17.52
2023-03-17T05:59:26.750Z,19.20
2023-03-17T06:01:54.263Z,22.25
2023-03-17T06:04:21.972Z,24.67
2023-03-17T06:06:49.598Z,25.70
2023-03-17T06:09:16.797Z,25.00
2023-03-17T06:11:44.356Z,27.92
2023-03-17T06:14:12.163Z,25.55
2023-03-17T06:16:39.657Z,27.67
2023-03-17T06:19:06.971Z,25.38
2023-03-17T06:21:34.545Z,28.55
2023-03-17T06:24:02.021Z,27.67
2023-03-17T06:26:29.540Z,27.60
2023-03-17T06:28:57.562Z,25.65
2023-03-17T06:31:24.695Z,24.33
2023-03-17T06:33:52.255Z,24.90
2023-03-17T06:36:19.686Z,23.05
2023-03-17T06:38:47.398Z,22.08
2023-03-17T06:41:15.125Z,20.83
2023-03-17T06:43:42.642Z,20.55
2023-03-17T06:46:09.922Z,23.17
2023-03-17T06:48:38.330Z,21.38
2023-03-17T06:51:06.392Z,20.48
2023-03-17T06:53:33.953Z,20.73
2023-03-17T06:56:01.207Z,20.98
2023-03-17T06:58:28.749Z,20.33
2023-03-17T07:00:56.186Z,20.00
2023-03-17T07:03:24.250Z,19.95
2023-03-17T07:05:52.158Z,18.67
2023-03-17T07:08:19.819Z,18.98
2023-03-17T07:10:47.010Z,19.42
2023-03-17T07:13:14.757Z,21.00
2023-03-17T07:15:42.822Z,21.08
2023-03-17T07:18:11.222Z,21.95
2023-03-17T07:20:38.527Z,23.42
2023-03-17T07:23:06.287Z,22.40
2023-03-17T07:25:36.817Z,22.27
2023-03-17T07:28:04.901Z,20.52
2023-03-17T07:30:32.679Z,20.98
2023-03-17T07:33:00.295Z,19.63
2023-03-17T07:35:29.091Z,20.73
2023-03-17T07:37:57.269Z,19.30
2023-03-17T07:40:24.865Z,21.52
2023-03-17T07:42:52.719Z,20.55
2023-03-17T07:45:20.022Z,20.20
2023-03-17T07:47:47.511Z,20.50
2023-03-17T07:50:15.522Z,24.23
2023-03-17T07:52:43.021Z,21.38
2023-03-17T07:55:13.071Z,21.85
2023-03-17T07:57:41.638Z,21.75
2023-03-17T08:00:09.951Z,20.38
2023-03-17T08:02:41.181Z,23.10
2023-03-17T08:05:09.441Z,22.52
2023-03-17T08:07:39.677Z,20.55
2023-03-17T08:10:08.214Z,19.98
2023-03-17T08:12:35.986Z,21.77
2023-03-17T08:15:03.654Z,20.98
2023-03-17T08:17:31.916Z,19.65
2023-03-17T08:19:59.298Z,19.77
2023-03-17T08:22:27.848Z,18.77
2023-03-17T08:24:55.729Z,17.85
2023-03-17T08:27:23.445Z,18.55
2023-03-17T08:29:51.226Z,18.05
2023-03-17T08:32:19.006Z,16.13
2023-03-17T08:34:48.069Z,15.65
2023-03-17T08:37:15.575Z,17.42
2023-03-17T08:39:42.760Z,15.95
2023-03-17T08:42:10.294Z,15.52
2023-03-17T08:44:37.825Z,15.70
2023-03-17T08:47:05.579Z,16.95
2023-03-17T08:49:35.006Z,15.30
2023-03-17T08:52:03.542Z,15.73
2023-03-17T08:54:30.849Z,14.95
2023-03-17T08:56:58.583Z,15.15
2023-03-17T08:59:25.815Z,14.60
2023-03-17T09:01:53.371Z,13.93
2023-03-17T09:04:21.650Z,15.25
2023-03-17T09:07:02.401Z,16.23
2023-03-17T09:09:31.245Z,14.57
2023-03-17T09:11:58.905Z,14.52
2023-03-17T09:14:26.287Z,14.68
2023-03-17T09:16:54.609Z,14.02
2023-03-17T09:19:21.986Z,12.65
2023-03-17T09:21:50.412Z,14.23
2023-03-17T09:24:18.916Z,13.07
2023-03-17T09:26:46.539Z,14.90
2023-03-17T09:29:13.746Z,13.68
2023-03-17T09:31:43.092Z,13.82
2023-03-17T09:34:11.135Z,15.00
2023-03-17T09:36:38.926Z,14.98
2023-03-17T09:39:06.717Z,14.73
2023-03-17T09:42:04.641Z,12.95
2023-03-17T09:44:53.559Z,14.85
2023-03-17T09:47:41.641Z,12.60
2023-03-17T09:50:29.446Z,14.93
2023-03-17T09:52:58.551Z,14.48
2023-03-17T09:55:31.781Z,15.05
2023-03-17T09:58:01.079Z,14.07
2023-03-17T10:00:29.801Z,14.65
2023-03-17T10:02:58.630Z,13.90
2023-03-17T10:05:34.836Z,14.00
2023-03-17T10:08:31.332Z,12.45
2023-03-17T10:11:10.977Z,13.40
2023-03-17T10:14:00.875Z,12.70
2023-03-17T10:16:41.856Z,12.57
2023-03-17T10:19:28.525Z,12.15
2023-03-17T10:22:10.487Z,11.80
2023-03-17T10:24:43.663Z,11.75
2023-03-17T10:27:12.529Z,11.30
2023-03-17T10:29:40.902Z,11.80
2023-03-17T10:32:12.667Z,11.30
2023-03-17T10:34:42.501Z,11.65
2023-03-17T10:37:17.681Z,11.88
2023-03-17T10:39:51.895Z,9.75
2023-03-17T10:42:32.325Z,10.75
2023-03-17T10:45:17.710Z,9.93
2023-03-17T10:47:49.104Z,10.70
2023-03-17T10:50:32.510Z,10.25
2023-03-17T10:53:10.922Z,10.40
2023-03-17T10:55:38.433Z,10.20
2023-03-17T10:58:07.968Z,9.00
2023-03-17T11:00:38.653Z,8.82
2023-03-17T11:03:23.039Z,9.10
2023-03-17T11:06:00.609Z,8.70
2023-03-17T11:08:33.063Z,9.35
2023-03-17T11:11:00.700Z,8.15
2023-03-17T11:13:31.141Z,9.10
2023-03-17T11:16:23.534Z,8.25
2023-03-17T11:21:31.876Z,8.20
2023-03-17T11:24:28.527Z,8.75
2023-03-17T11:27:00.572Z,9.23
2023-03-17T11:29:58.369Z,8.25
2023-03-17T11:32:47.887Z,8.55
2023-03-17T11:35:39.908Z,7.80
2023-03-17T11:38:19.823Z,8.23
2023-03-17T11:41:11.062Z,8.80
2023-03-17T11:44:02.237Z,5.68
2023-03-17T11:47:09.105Z,7.63
2023-03-17T11:49:38.815Z,7.95
2023-03-17T11:52:12.772Z,7.68
2023-03-17T11:55:09.666Z,7.93
2023-03-17T11:57:58.688Z,8.20
2023-03-17T12:00:33.813Z,10.00
2023-03-17T12:03:20.882Z,8.15
2023-03-17T12:05:54.901Z,10.40
2023-03-17T12:08:25.071Z,9.45
2023-03-17T12:10:55.667Z,7.72
2023-03-17T12:13:34.579Z,8.07
2023-03-17T12:16:33.809Z,8.23
2023-03-17T12:19:16.957Z,7.88
2023-03-17T12:21:54.369Z,9.40
2023-03-17T12:24:34.545Z,8.80
2023-03-17T12:27:30.353Z,8.10
2023-03-17T12:30:07.964Z,8.88
2023-03-17T12:32:56.126Z,9.07
2023-03-17T12:35:34.962Z,8.60
2023-03-17T12:38:12.277Z,8.75
2023-03-17T12:41:05.753Z,8.80
2023-03-17T12:44:20.693Z,9.30
2023-03-17T12:47:25.817Z,9.57
2023-03-17T12:50:05.969Z,10.38
2023-03-17T12:52:39.253Z,9.23
2023-03-17T12:55:13.646Z,8.75
2023-03-17T12:57:46.514Z,9.52
2023-03-17T13:00:28.464Z,9.07
2023-03-17T13:03:30.715Z,8.70
2023-03-17T13:06:01.495Z,10.15
2023-03-17T13:08:33.304Z,10.07
2023-03-17T13:11:27.365Z,9.18
2023-03-17T13:13:54.626Z,8.75
2023-03-17T13:16:37.764Z,9.43
2023-03-17T13:19:15.693Z,8.38
2023-03-17T13:22:17.976Z,9.35
2023-03-17T13:24:53.610Z,8.50
2023-03-17T13:27:30.245Z,9.30
2023-03-17T13:30:22.093Z,8.57
2023-03-17T13:32:57.564Z,8.32
2023-03-17T13:35:57.237Z,9.57
2023-03-17T13:38:48.556Z,8.70
2023-03-17T13:41:49.468Z,9.25
2023-03-17T13:44:56.953Z,8.43
2023-03-17T13:47:27.127Z,9.32
2023-03-17T13:50:00.878Z,8.60
2023-03-17T13:52:33.688Z,8.60
2023-03-17T13:55:18.505Z,8.55
2023-03-17T13:58:12.208Z,8.60
2023-03-17T14:00:44.323Z,8.35
2023-03-17T14:03:17.649Z,9.80
2023-03-17T14:05:50.993Z,8.10
2023-03-17T14:08:27.524Z,8.75
2023-03-17T14:10:59.434Z,7.78
2023-03-17T14:13:57.156Z,8.20
2023-03-17T14:16:29.847Z,9.75
2023-03-17T14:19:20.799Z,7.90
2023-03-17T14:21:48.488Z,9.45
2023-03-17T14:24:30.143Z,8.52
2023-03-17T14:26:57.730Z,8.55
2023-03-17T14:29:32.006Z,8.75
2023-03-17T14:32:15.172Z,7.95
2023-03-17T14:34:44.382Z,7.53
2023-03-17T14:37:12.842Z,7.90
2023-03-17T14:39:49.066Z,8.05
2023-03-17T14:42:20.093Z,7.78
2023-03-17T14:44:47.549Z,7.00
2023-03-17T14:47:23.005Z,7.13
2023-03-17T14:49:53.480Z,7.00
2023-03-17T14:52:27.968Z,7.80
2023-03-17T14:54:59.340Z,7.75
2023-03-17T14:57:31.491Z,7.00
2023-03-17T15:00:23.029Z,7.47
2023-03-17T15:02:58.860Z,7.70
2023-03-17T15:05:41.967Z,7.53
2023-03-17T15:08:48.267Z,8.05
2023-03-17T15:11:20.157Z,7.60
2023-03-17T15:13:48.754Z,7.75
2023-03-17T15:16:27.863Z,7.10
2023-03-17T15:19:06.109Z,7.97
2023-03-17T15:21:38.834Z,6.80
2023-03-17T15:24:23.205Z,7.45
2023-03-17T15:26:50.721Z,7.40
2023-03-17T15:29:18.545Z,7.25
2023-03-17T15:31:45.857Z,6.97
2023-03-17T15:34:15.474Z,7.28
2023-03-17T15:36:47.428Z,8.20
2023-03-17T15:39:15.065Z,7.45
2023-03-17T15:41:42.395Z,6.60
2023-03-17T15:44:09.912Z,6.93
2023-03-17T15:46:37.415Z,7.70
2023-03-17T15:49:10.789Z,7.13
2023-03-17T15:51:38.451Z,6.75
2023-03-17T15:54:06.012Z,7.10
2023-03-17T15:56:34.597Z,7.72
2023-03-17T15:59:02.881Z,6.35
2023-03-17T16:01:30.205Z,6.70
2023-03-17T16:03:57.744Z,7.07
2023-03-17T16:06:25.003Z,7.95
2023-03-17T16:08:52.564Z,6.72
2023-03-17T16:11:28.272Z,7.57
2023-03-17T16:13:57.363Z,5.75
2023-03-17T16:16:45.927Z,6.18
2023-03-17T16:19:20.862Z,6.13
2023-03-17T16:21:49.111Z,7.72
2023-03-17T16:24:22.908Z,6.85
2023-03-17T16:26:50.991Z,6.80
2023-03-17T16:29:21.021Z,7.22
2023-03-17T16:31:51.015Z,6.72
2023-03-17T16:34:21.474Z,7.20
2023-03-17T16:36:50.479Z,7.35
2023-03-17T16:39:22.566Z,6.78
2023-03-17T16:41:50.844Z,7.18
2023-03-17T16:44:20.600Z,6.43
2023-03-17T16:46:49.336Z,7.47
2023-03-17T16:49:19.405Z,7.82
2023-03-17T16:51:48.755Z,7.43
2023-03-17T16:54:17.184Z,7.60
2023-03-17T16:56:45.254Z,7.03
2023-03-17T16:59:19.969Z,7.03
2023-03-17T17:01:47.238Z,7.05
2023-03-17T17:04:14.841Z,7.38
2023-03-17T17:06:42.070Z,7.00
2023-03-17T17:09:09.629Z,7.18
2023-03-17T17:11:36.884Z,5.95
2023-03-17T17:14:04.449Z,7.13
2023-03-17T17:16:35.699Z,6.53
2023-03-17T17:19:04.394Z,7.75
2023-03-17T17:21:33.020Z,7.30
2023-03-17T17:24:00.607Z,7.30
2023-03-17T17:26:27.854Z,7.95
2023-03-17T17:28:55.440Z,6.85
2023-03-17T17:31:22.776Z,7.65
2023-03-17T17:33:50.476Z,8.38
2023-03-17T17:36:18.179Z,7.70
2023-03-17T17:38:45.931Z,9.20
2023-03-17T17:41:14.339Z,8.55
2023-03-17T17:43:42.265Z,7.75
2023-03-17T17:46:12.580Z,9.00
2023-03-17T17:48:40.445Z,10.10
2023-03-17T17:51:07.707Z,8.85
2023-03-17T17:53:35.372Z,9.70
2023-03-17T17:56:02.789Z,8.30
2023-03-17T17:58:30.648Z,8.40
2023-03-17T18:00:58.276Z,8.85
2023-03-17T18:03:26.832Z,8.80
2023-03-17T18:05:56.278Z,8.70
2023-03-17T18:08:25.619Z,8.43
2023-03-17T18:10:53.411Z,8.02
2023-03-17T18:13:21.067Z,8.35
2023-03-17T18:15:48.390Z,8.07
2023-03-17T18:18:16.115Z,8.27
2023-03-17T18:20:43.344Z,8.50
2023-03-17T18:23:11.267Z,7.90
2023-03-17T18:25:38.491Z,8.25
2023-03-17T18:28:06.407Z,8.90
2023-03-17T18:30:35.314Z,9.27
2023-03-17T18:33:23.206Z,8.07
2023-03-17T18:35:52.245Z,7.97
2023-03-17T18:38:19.873Z,9.45
2023-03-17T18:40:47.116Z,8.35
2023-03-17T18:43:14.700Z,7.50
2023-03-17T18:45:42.001Z,8.48
2023-03-17T18:48:09.629Z,8.27
2023-03-17T18:50:37.193Z,8.30
2023-03-17T18:53:04.985Z,8.57
2023-03-17T18:55:32.461Z,7.88
2023-03-17T18:58:00.080Z,8.00
2023-03-17T19:00:27.428Z,8.57
2023-03-17T19:02:55.087Z,8.30
2023-03-17T19:05:22.464Z,8.73
2023-03-17T19:07:50.072Z,9.52
2023-03-17T19:10:17.945Z,8.38
2023-03-17T19:12:47.266Z,8.75
2023-03-17T19:15:14.726Z,8.95
2023-03-17T19:17:42.408Z,9.27
2023-03-17T19:20:10.904Z,9.43
2023-03-17T19:22:38.454Z,9.80
2023-03-17T19:25:06.389Z,8.82
2023-03-17T19:27:33.941Z,10.55
2023-03-17T19:30:01.182Z,10.15
2023-03-17T19:32:28.831Z,9.07
2023-03-17T19:34:56.210Z,10.05
2023-03-17T19:37:23.749Z,10.60
2023-03-17T19:39:51.135Z,10.45
2023-03-17T19:42:18.737Z,10.43
2023-03-17T19:44:46.053Z,10.15
2023-03-17T19:47:13.618Z,10.32
2023-03-17T19:49:41.960Z,10.85
2023-03-17T19:52:10.406Z,10.98
2023-03-17T19:54:45.913Z,10.77
2023-03-17T19:57:14.108Z,9.73
2023-03-17T19:59:41.520Z,9.20
2023-03-17T20:02:13.180Z,10.23
2023-03-17T20:04:40.931Z,9.95
2023-03-17T20:07:09.581Z,9.50
2023-03-17T20:09:38.074Z,10.07
2023-03-17T20:12:06.010Z,10.05
2023-03-17T20:14:33.269Z,10.43
2023-03-17T20:17:00.969Z,9.90
2023-03-17T20:19:29.252Z,10.35
2023-03-17T20:21:58.594Z,10.98
2023-03-17T20:24:27.176Z,9.60
2023-03-17T20:26:57.354Z,10.02
2023-03-17T20:29:25.874Z,11.27
2023-03-17T20:31:53.700Z,10.65
2023-03-17T20:34:21.534Z,10.82
2023-03-17T20:36:49.531Z,10.52
2023-03-17T20:39:19.975Z,9.93
2023-03-17T20:41:51.666Z,10.43
2023-03-17T20:44:19.834Z,11.70
2023-03-17T20:46:47.806Z,10.45
2023-03-17T20:49:15.884Z,10.75
2023-03-17T20:51:44.051Z,10.80
2023-03-17T20:54:11.445Z,10.90
2023-03-17T20:56:39.743Z,9.88
2023-03-17T20:59:09.692Z,10.85
2023-03-17T21:01:38.855Z,11.48
2023-03-17T21:04:09.121Z,10.27
2023-03-17T21:06:37.564Z,10.98
2023-03-17T21:09:06.057Z,9.88
2023-03-17T21:11:34.040Z,10.20
2023-03-17T21:14:03.467Z,10.93
2023-03-17T21:16:31.196Z,10.38
2023-03-17T21:18:58.966Z,10.95
2023-03-17T21:21:27.383Z,11.68
2023-03-17T21:23:55.064Z,11.77
2023-03-17T21:26:23.042Z,9.35
2023-03-17T21:28:50.572Z,10.90
2023-03-17T21:31:18.408Z,11.93
2023-03-17T21:33:48.651Z,11.38
2023-03-17T21:36:16.992Z,11.85
2023-03-17T21:38:44.231Z,11.25
2023-03-17T21:41:22.414Z,9.90
2023-03-17T21:43:50.619Z,10.95
2023-03-17T21:46:18.344Z,10.48
2023-03-17T21:48:45.582Z,10.98
2023-03-17T21:51:13.174Z,10.82
2023-03-17T21:53:40.437Z,11.23
2023-03-17T21:56:08.914Z,10.52
2023-03-17T21:58:36.697Z,12.02
2023-03-17T22:01:04.601Z,10.50
2023-03-17T22:03:32.445Z,10.55
2023-03-17T22:06:00.312Z,10.75
2023-03-17T22:08:27.880Z,10.30
2023-03-17T22:10:55.672Z,11.00
2023-03-17T22:13:22.952Z,10.82
2023-03-17T22:15:50.552Z,10.18
2023-03-17T22:18:18.047Z,9.93
2023-03-17T22:20:45.627Z,10.45
2023-03-17T22:23:13.131Z,11.25
2023-03-17T22:25:40.701Z,10.93
2023-03-17T22:28:08.700Z,9.75
2023-03-17T22:30:39.504Z,10.93
2023-03-17T22:33:07.705Z,10.82
2023-03-17T22:35:36.647Z,10.80
2023-03-17T22:38:05.138Z,11.05
2023-03-17T22:40:33.931Z,10.63
2023-03-17T22:43:02.249Z,9.57
2023-03-17T22:45:29.863Z,10.80
2023-03-17T22:47:57.367Z,9.70
2023-03-17T22:50:25.472Z,9.85
2023-03-17T22:52:52.734Z,10.95
2023-03-17T22:55:20.238Z,10.35
2023-03-17T22:57:47.629Z,11.23
2023-03-17T23:00:17.195Z,10.25
2023-03-17T23:02:46.533Z,10.30
2023-03-17T23:05:14.655Z,10.75
2023-03-17T23:07:50.255Z,10.43
2023-03-17T23:10:25.388Z,10.07
2023-03-17T23:12:53.180Z,9.57
2023-03-17T23:15:21.531Z,9.65
2023-03-17T23:17:48.852Z,9.80
2023-03-17T23:20:16.865Z,9.93
2023-03-17T23:22:44.123Z,9.65
2023-03-17T23:25:13.651Z,9.07
2023-03-17T23:27:41.462Z,10.00
2023-03-17T23:30:11.719Z,9.73
2023-03-17T23:32:40.831Z,8.93
2023-03-17T23:35:09.500Z,9.43
2023-03-17T23:37:37.423Z,12.05
2023-03-17T23:40:06.528Z,15.30
2023-03-17T23:42:33.929Z,9.95
2023-03-17T23:45:02.629Z,8.23
2023-03-17T23:47:30.668Z,9.20
2023-03-17T23:49:58.219Z,9.30
2023-03-17T23:52:25.780Z,9.35
2023-03-17T23:54:54.082Z,9.35
2023-03-17T23:57:21.737Z,8.43
2023-03-17T23:59:49.435Z,11.13
